createdAt,value
2022-08-23T00:01:50.575Z,48.48
2022-08-23T00:04:23.451Z,48.88
2022-08-23T00:07:01.164Z,48.71
2022-08-23T00:09:29.079Z,49.31
2022-08-23T00:12:03.533Z,48.84
2022-08-23T00:14:32.071Z,48.89
2022-08-23T00:16:59.343Z,48.93
2022-08-23T00:19:26.608Z,48.88
2022-08-23T00:21:55.203Z,49.31
2022-08-23T00:24:23.883Z,48.99
2022-08-23T00:26:59.883Z,49.31
2022-08-23T00:29:31.651Z,49.29
2022-08-23T00:31:59.199Z,49.33
2022-08-23T00:34:25.910Z,49.67
2022-08-23T00:36:52.961Z,50.00
2022-08-23T00:39:19.486Z,50.20
2022-08-23T00:41:47.771Z,49.80
2022-08-23T00:44:39.525Z,49.83
2022-08-23T00:47:26.198Z,49.73
2022-08-23T00:50:03.987Z,49.61
2022-08-23T00:53:17.628Z,50.02
2022-08-23T00:55:46.626Z,50.44
2022-08-23T00:58:16.139Z,50.63
2022-08-23T01:00:42.595Z,50.36
2022-08-23T01:03:11.326Z,50.41
2022-08-23T01:06:01.578Z,50.24
2022-08-23T01:08:31.331Z,50.91
2022-08-23T01:11:08.829Z,50.51
2022-08-23T01:13:51.005Z,50.37
2022-08-23T01:16:25.788Z,50.70
2022-08-23T01:18:54.723Z,50.43
2022-08-23T01:21:36.583Z,50.63
2022-08-23T01:24:08.143Z,50.68
2022-08-23T01:26:35.256Z,51.54
2022-08-23T01:29:05.767Z,51.18
2022-08-23T01:31:33.311Z,51.09
2022-08-23T01:34:06.766Z,51.69
2022-08-23T01:36:35.719Z,51.90
2022-08-23T01:39:04.507Z,51.79
2022-08-23T01:41:31.980Z,51.70
2022-08-23T01:43:58.752Z,51.88
2022-08-23T01:46:27.428Z,51.73
2022-08-23T01:48:55.540Z,51.53
2022-08-23T01:51:23.885Z,52.25
2022-08-23T01:53:50.944Z,52.03
2022-08-23T01:56:27.571Z,51.78
2022-08-23T01:59:08.608Z,51.82
2022-08-23T02:01:42.739Z,52.32
2022-08-23T02:04:09.201Z,52.22
2022-08-23T02:06:35.898Z,52.54
2022-08-23T02:09:05.792Z,52.30
2022-08-23T02:11:45.024Z,52.69
2022-08-23T02:14:18.516Z,53.11
2022-08-23T02:17:04.469Z,53.67
2022-08-23T02:19:35.196Z,53.61
2022-08-23T02:22:03.314Z,53.07
2022-08-23T02:24:31.182Z,53.73
2022-08-23T02:27:02.018Z,53.26
2022-08-23T02:29:29.733Z,53.33
2022-08-23T02:31:58.354Z,53.32
2022-08-23T02:34:36.732Z,53.20
2022-08-23T02:37:03.527Z,53.47
2022-08-23T02:39:30.485Z,53.60
2022-08-23T02:41:57.550Z,53.36
2022-08-23T02:44:24.683Z,53.60
2022-08-23T02:46:51.247Z,53.57
2022-08-23T02:49:18.512Z,53.54
2022-08-23T02:51:46.201Z,53.50
2022-08-23T02:54:13.288Z,53.80
2022-08-23T02:56:40.358Z,53.66
2022-08-23T02:59:08.214Z,53.84
2022-08-23T03:01:37.704Z,54.14
2022-08-23T03:04:24.901Z,53.98
2022-08-23T03:06:51.572Z,54.50
2022-08-23T03:09:18.605Z,54.56
2022-08-23T03:11:47.382Z,55.21
2022-08-23T03:14:14.200Z,54.90
2022-08-23T03:16:41.223Z,55.02
2022-08-23T03:19:08.607Z,54.84
2022-08-23T03:21:35.852Z,55.05
2022-08-23T03:24:06.911Z,55.02
2022-08-23T03:26:36.751Z,54.91
2022-08-23T03:29:03.762Z,55.00
2022-08-23T03:31:37.039Z,55.07
2022-08-23T03:34:09.369Z,55.18
2022-08-23T03:36:35.775Z,55.33
2022-08-23T03:39:04.703Z,55.73
2022-08-23T03:41:31.131Z,55.71
2022-08-23T03:43:57.726Z,55.72
2022-08-23T03:46:29.026Z,55.40
2022-08-23T03:49:02.243Z,55.70
2022-08-23T03:51:36.477Z,56.12
2022-08-23T03:54:03.549Z,55.96
2022-08-23T03:56:33.106Z,56.09
2022-08-23T03:59:04.300Z,55.86
2022-08-23T04:01:30.797Z,56.09
2022-08-23T04:04:01.265Z,56.29
2022-08-23T04:06:29.795Z,56.36
2022-08-23T04:08:56.439Z,57.20
2022-08-23T04:11:23.496Z,56.55
2022-08-23T04:13:56.723Z,56.61
2022-08-23T04:16:23.273Z,57.04
2022-08-23T04:18:49.807Z,57.29
2022-08-23T04:21:22.384Z,56.95
2022-08-23T04:23:49.470Z,57.17
2022-08-23T04:26:15.985Z,56.63
2022-08-23T04:28:43.731Z,56.78
2022-08-23T04:31:10.469Z,56.59
2022-08-23T04:33:40.453Z,57.64
2022-08-23T04:36:08.786Z,57.68
2022-08-23T04:38:35.244Z,57.99
2022-08-23T04:41:23.749Z,57.96
2022-08-23T04:43:56.737Z,57.78
2022-08-23T04:46:24.407Z,57.87
2022-08-23T04:48:54.000Z,58.04
2022-08-23T04:51:22.125Z,57.95
2022-08-23T04:53:48.940Z,58.27
2022-08-23T04:56:34.708Z,59.13
2022-08-23T04:59:01.962Z,58.92
2022-08-23T05:01:28.879Z,58.95
2022-08-23T05:03:56.048Z,58.57
2022-08-23T05:06:25.119Z,59.31
2022-08-23T05:08:53.084Z,59.12
2022-08-23T05:11:20.470Z,59.15
2022-08-23T05:13:48.436Z,59.45
2022-08-23T05:16:15.496Z,59.82
2022-08-23T05:18:49.633Z,59.19
2022-08-23T05:21:19.527Z,60.21
2022-08-23T05:23:50.756Z,60.27
2022-08-23T05:26:21.304Z,59.56
2022-08-23T05:28:49.852Z,60.09
2022-08-23T05:31:25.940Z,60.71
2022-08-23T05:33:54.971Z,60.75
2022-08-23T05:36:55.818Z,60.96
2022-08-23T05:39:37.099Z,61.05
2022-08-23T05:42:10.660Z,60.88
2022-08-23T05:44:37.779Z,61.58
2022-08-23T05:47:10.685Z,61.42
2022-08-23T05:49:46.586Z,61.10
2022-08-23T05:52:14.158Z,60.82
2022-08-23T05:54:42.710Z,61.23
2022-08-23T05:57:41.478Z,61.23
2022-08-23T06:00:15.242Z,61.00
2022-08-23T06:02:51.166Z,60.91
2022-08-23T06:05:19.595Z,61.52
2022-08-23T06:07:47.637Z,61.66
2022-08-23T06:10:20.182Z,61.76
2022-08-23T06:12:50.772Z,60.84
2022-08-23T06:15:17.452Z,61.36
2022-08-23T06:17:44.044Z,61.41
2022-08-23T06:20:11.011Z,61.75
2022-08-23T06:22:55.260Z,61.27
2022-08-23T06:25:22.251Z,61.00
2022-08-23T06:28:10.763Z,60.33
2022-08-23T06:30:39.994Z,60.47
2022-08-23T06:33:16.196Z,60.25
2022-08-23T06:35:46.539Z,60.21
2022-08-23T06:38:29.011Z,59.81
2022-08-23T06:41:14.015Z,59.74
2022-08-23T06:44:20.021Z,59.71
2022-08-23T06:47:02.060Z,59.90
2022-08-23T06:49:28.891Z,59.57
2022-08-23T06:51:57.830Z,58.64
2022-08-23T06:54:44.242Z,58.32
2022-08-23T06:57:37.766Z,57.31
2022-08-23T07:00:22.791Z,56.54
2022-08-23T07:03:24.732Z,56.56
2022-08-23T07:06:09.930Z,56.16
2022-08-23T07:08:37.637Z,55.97
2022-08-23T07:11:04.376Z,55.85
2022-08-23T07:13:31.042Z,55.59
2022-08-23T07:15:59.327Z,55.42
2022-08-23T07:18:26.666Z,55.17
2022-08-23T07:20:58.782Z,54.84
2022-08-23T07:23:27.049Z,54.45
2022-08-23T07:25:54.396Z,54.34
2022-08-23T07:28:25.127Z,54.19
2022-08-23T07:30:51.825Z,54.08
2022-08-23T07:33:18.383Z,54.15
2022-08-23T07:36:16.430Z,53.86
2022-08-23T07:38:45.439Z,53.52
2022-08-23T07:41:12.998Z,53.49
2022-08-23T07:43:39.662Z,53.59
2022-08-23T07:46:08.846Z,53.74
2022-08-23T07:48:53.441Z,53.15
2022-08-23T07:51:25.093Z,52.78
2022-08-23T07:53:52.048Z,51.94
2022-08-23T07:56:21.339Z,51.37
2022-08-23T07:58:57.969Z,51.39
2022-08-23T08:01:53.679Z,51.63
2022-08-23T08:04:22.180Z,51.29
2022-08-23T08:07:10.330Z,51.32
2022-08-23T08:09:42.231Z,50.97
2022-08-23T08:12:08.859Z,50.65
2022-08-23T08:14:37.326Z,50.41
2022-08-23T08:17:04.402Z,50.03
2022-08-23T08:19:57.043Z,50.58
2022-08-23T08:22:46.739Z,50.21
2022-08-23T08:25:14.972Z,50.34
2022-08-23T08:27:42.755Z,50.78
2022-08-23T08:30:11.833Z,50.73
2022-08-23T08:32:46.709Z,50.15
2022-08-23T08:35:13.812Z,49.81
2022-08-23T08:37:40.542Z,50.11
2022-08-23T08:40:07.991Z,49.92
2022-08-23T08:43:06.272Z,49.86
2022-08-23T08:46:02.988Z,49.52
2022-08-23T08:48:39.369Z,49.02
2022-08-23T08:51:19.671Z,48.63
2022-08-23T08:53:49.424Z,48.78
2022-08-23T08:56:32.944Z,48.43
2022-08-23T08:59:24.015Z,48.33
2022-08-23T09:01:51.448Z,48.65
2022-08-23T09:04:25.691Z,47.70
2022-08-23T09:07:11.119Z,47.42
2022-08-23T09:10:25.190Z,47.25
2022-08-23T09:13:32.956Z,47.73
2022-08-23T09:16:41.249Z,46.06
2022-08-23T09:19:08.488Z,46.13
2022-08-23T09:21:47.223Z,45.53
2022-08-23T09:24:14.430Z,45.46
2022-08-23T09:26:54.270Z,45.82
2022-08-23T09:29:31.272Z,45.77
2022-08-23T09:32:03.578Z,45.40
2022-08-23T09:34:36.527Z,44.87
2022-08-23T09:37:17.602Z,45.06
2022-08-23T09:39:49.593Z,44.26
2022-08-23T09:42:32.733Z,44.49
2022-08-23T09:44:59.694Z,44.49
2022-08-23T09:47:38.463Z,46.06
2022-08-23T09:50:25.186Z,44.95
2022-08-23T09:52:59.020Z,44.34
2022-08-23T09:55:31.667Z,43.28
2022-08-23T09:58:00.531Z,42.45
2022-08-23T10:00:34.149Z,43.62
2022-08-23T10:03:27.662Z,42.73
2022-08-23T10:06:01.645Z,41.38
2022-08-23T10:08:40.916Z,44.66
2022-08-23T10:11:23.775Z,42.22
2022-08-23T10:13:52.235Z,41.78
2022-08-23T10:16:39.703Z,40.81
2022-08-23T10:19:56.127Z,40.20
2022-08-23T10:22:26.747Z,40.08
2022-08-23T10:25:30.337Z,38.75
2022-08-23T10:28:47.415Z,38.55
2022-08-23T10:31:41.852Z,39.49
2022-08-23T10:34:47.112Z,39.16
2022-08-23T10:37:36.426Z,39.23
2022-08-23T10:40:28.885Z,38.89
2022-08-23T10:43:07.683Z,38.16
2022-08-23T10:45:40.038Z,38.27
2022-08-23T10:48:28.502Z,39.65
2022-08-23T10:50:59.559Z,37.32
2022-08-23T10:53:37.494Z,38.76
2022-08-23T10:56:06.768Z,38.79
2022-08-23T10:58:56.013Z,36.58
2022-08-23T11:01:28.916Z,37.24
2022-08-23T11:04:04.155Z,36.76
2022-08-23T11:06:45.809Z,37.35
2022-08-23T11:09:19.661Z,35.68
2022-08-23T11:11:49.864Z,35.84
2022-08-23T11:14:36.835Z,34.91
2022-08-23T11:17:11.662Z,34.75
2022-08-23T11:19:52.395Z,35.74
2022-08-23T11:22:21.621Z,34.79
2022-08-23T11:24:54.746Z,34.71
2022-08-23T11:27:33.293Z,36.90
2022-08-23T11:30:34.828Z,36.16
2022-08-23T11:33:26.250Z,36.29
2022-08-23T11:36:16.613Z,35.23
2022-08-23T11:38:43.636Z,34.97
2022-08-23T11:41:18.874Z,36.16
2022-08-23T11:43:56.217Z,36.27
2022-08-23T11:46:22.745Z,36.47
2022-08-23T11:49:27.035Z,37.85
2022-08-23T11:52:02.233Z,38.02
2022-08-23T11:55:06.972Z,37.32
2022-08-23T11:57:55.366Z,38.37
2022-08-23T12:00:28.902Z,37.88
2022-08-23T12:03:04.545Z,37.29
2022-08-23T12:05:34.304Z,37.11
2022-08-23T12:08:04.232Z,37.19
2022-08-23T12:10:37.985Z,36.62
2022-08-23T12:13:19.637Z,37.21
2022-08-23T12:16:19.721Z,36.24
2022-08-23T12:18:49.286Z,37.18
2022-08-23T12:21:23.968Z,38.56
2022-08-23T12:23:54.143Z,37.72
2022-08-23T12:26:26.883Z,38.29
2022-08-23T12:29:39.899Z,40.44
2022-08-23T12:32:09.350Z,42.35
2022-08-23T12:35:03.396Z,43.37
2022-08-23T12:38:08.501Z,41.00
2022-08-23T12:40:42.801Z,39.49
2022-08-23T12:43:19.771Z,39.09
2022-08-23T12:45:57.687Z,35.69
2022-08-23T12:48:27.631Z,34.62
2022-08-23T12:51:02.090Z,35.53
2022-08-23T12:53:44.004Z,35.77
2022-08-23T12:56:17.233Z,34.45
2022-08-23T12:58:49.272Z,36.09
2022-08-23T13:01:23.145Z,34.44
2022-08-23T13:03:59.095Z,34.75
2022-08-23T13:06:31.250Z,34.93
2022-08-23T13:09:35.422Z,37.37
2022-08-23T13:12:03.500Z,34.84
2022-08-23T13:15:04.996Z,34.55
2022-08-23T13:17:38.610Z,35.30
2022-08-23T13:20:22.604Z,35.77
2022-08-23T13:23:02.477Z,38.02
2022-08-23T13:25:38.732Z,36.12
2022-08-23T13:28:21.372Z,34.55
2022-08-23T13:31:01.032Z,33.37
2022-08-23T13:33:27.470Z,34.40
2022-08-23T13:36:14.611Z,32.58
2022-08-23T13:38:43.253Z,33.38
2022-08-23T13:41:26.285Z,33.58
2022-08-23T13:43:53.185Z,34.67
2022-08-23T13:46:28.481Z,33.56
2022-08-23T13:49:00.276Z,33.70
2022-08-23T13:51:36.968Z,34.05
2022-08-23T13:54:15.535Z,32.55
2022-08-23T13:56:47.513Z,33.87
2022-08-23T13:59:22.812Z,34.35
2022-08-23T14:01:54.073Z,33.64
2022-08-23T14:04:20.634Z,33.99
2022-08-23T14:06:48.924Z,34.19
2022-08-23T14:09:16.065Z,34.68
2022-08-23T14:11:43.002Z,34.99
2022-08-23T14:14:11.926Z,34.08
2022-08-23T14:16:40.063Z,33.53
2022-08-23T14:19:55.352Z,34.47
2022-08-23T14:21:58.224Z,34.98
2022-08-23T14:24:26.904Z,34.57
2022-08-23T14:26:54.718Z,34.98
2022-08-23T14:29:22.517Z,34.48
2022-08-23T14:31:50.846Z,34.28
2022-08-23T14:34:17.451Z,34.19
2022-08-23T14:37:21.704Z,34.67
2022-08-23T14:39:30.529Z,35.06
2022-08-23T14:41:58.075Z,35.63
2022-08-23T14:44:25.667Z,35.87
2022-08-23T14:46:54.424Z,34.49
2022-08-23T14:49:21.791Z,34.09
2022-08-23T14:51:50.242Z,33.96
2022-08-23T14:54:23.734Z,34.08
2022-08-23T14:56:50.783Z,34.20
2022-08-23T14:59:17.358Z,33.68
2022-08-23T15:01:44.860Z,33.41
2022-08-23T15:04:16.132Z,33.41
2022-08-23T15:07:00.452Z,34.30
2022-08-23T15:09:29.054Z,34.94
2022-08-23T15:14:41.814Z,34.62
2022-08-23T15:17:08.323Z,34.81
2022-08-23T15:19:35.149Z,34.33
2022-08-23T15:22:18.579Z,34.50
2022-08-23T15:24:48.911Z,34.18
2022-08-23T15:27:15.410Z,34.06
2022-08-23T15:29:41.802Z,34.55
2022-08-23T15:32:10.160Z,34.17
2022-08-23T15:34:40.153Z,34.51
2022-08-23T15:37:13.007Z,34.42
2022-08-23T15:39:39.479Z,34.38
2022-08-23T15:42:06.713Z,33.53
2022-08-23T15:44:33.134Z,33.74
2022-08-23T15:46:59.631Z,34.50
2022-08-23T15:49:27.899Z,34.29
2022-08-23T15:51:55.113Z,34.80
2022-08-23T15:54:21.493Z,33.46
2022-08-23T15:56:49.844Z,33.42
2022-08-23T15:59:19.852Z,33.29
2022-08-23T16:01:46.423Z,33.79
2022-08-23T16:04:13.124Z,33.54
2022-08-23T16:06:41.418Z,34.02
2022-08-23T16:09:16.398Z,34.50
2022-08-23T16:11:43.411Z,35.00
2022-08-23T16:14:10.324Z,34.48
2022-08-23T16:16:38.205Z,34.82
2022-08-23T16:19:05.768Z,34.99
2022-08-23T16:21:32.456Z,34.79
2022-08-23T16:23:59.642Z,34.87
2022-08-23T16:26:35.030Z,34.81
2022-08-23T16:29:04.004Z,34.51
2022-08-23T16:31:38.982Z,34.36
2022-08-23T16:34:11.709Z,34.88
2022-08-23T16:36:43.719Z,35.04
2022-08-23T16:39:11.574Z,34.62
2022-08-23T16:41:38.417Z,34.66
2022-08-23T16:44:05.769Z,34.66
2022-08-23T16:46:32.903Z,34.57
2022-08-23T16:48:59.356Z,34.84
2022-08-23T16:51:25.756Z,34.84
2022-08-23T16:53:55.653Z,34.80
2022-08-23T16:56:30.735Z,34.64
2022-08-23T16:58:57.189Z,34.81
2022-08-23T17:01:23.927Z,35.25
2022-08-23T17:03:50.539Z,35.03
2022-08-23T17:06:17.129Z,35.42
2022-08-23T17:08:43.597Z,35.26
2022-08-23T17:11:14.227Z,35.08
2022-08-23T17:13:40.718Z,34.61
2022-08-23T17:16:07.670Z,34.99
2022-08-23T17:18:34.100Z,34.89
2022-08-23T17:21:00.526Z,34.55
2022-08-23T17:23:26.882Z,34.52
2022-08-23T17:25:53.272Z,34.57
2022-08-23T17:28:19.749Z,34.78
2022-08-23T17:30:46.175Z,35.07
2022-08-23T17:33:12.665Z,34.77
2022-08-23T17:35:39.495Z,35.60
2022-08-23T17:38:06.475Z,35.32
2022-08-23T17:40:36.565Z,35.54
2022-08-23T17:43:04.370Z,35.62
2022-08-23T17:45:39.504Z,35.89
2022-08-23T17:48:06.343Z,36.50
2022-08-23T17:50:32.832Z,36.84
2022-08-23T17:52:59.311Z,37.09
2022-08-23T17:55:25.823Z,37.60
2022-08-23T17:58:02.217Z,38.32
2022-08-23T18:00:35.511Z,39.24
2022-08-23T18:03:03.042Z,39.79
2022-08-23T18:05:33.164Z,40.38
2022-08-23T18:08:00.294Z,40.65
2022-08-23T18:10:27.334Z,40.92
2022-08-23T18:12:53.723Z,41.47
2022-08-23T18:15:20.493Z,42.15
2022-08-23T18:17:47.140Z,42.27
2022-08-23T18:20:13.847Z,42.45
2022-08-23T18:22:40.487Z,42.02
2022-08-23T18:25:08.820Z,42.16
2022-08-23T18:27:54.293Z,42.43
2022-08-23T18:30:21.124Z,42.72
2022-08-23T18:32:47.534Z,42.61
2022-08-23T18:35:14.019Z,42.88
2022-08-23T18:37:41.688Z,42.63
2022-08-23T18:40:10.041Z,42.74
2022-08-23T18:42:37.550Z,42.70
2022-08-23T18:45:05.207Z,42.96
2022-08-23T18:47:31.708Z,43.28
2022-08-23T18:49:58.126Z,43.17
2022-08-23T18:52:24.611Z,42.84
2022-08-23T18:54:50.987Z,42.78
2022-08-23T18:57:17.680Z,42.89
2022-08-23T18:59:44.382Z,42.80
2022-08-23T19:02:10.901Z,43.06
2022-08-23T19:04:37.514Z,43.16
2022-08-23T19:07:04.832Z,43.58
2022-08-23T19:09:31.244Z,43.84
2022-08-23T19:12:00.142Z,43.48
2022-08-23T19:14:28.227Z,43.55
2022-08-23T19:16:55.154Z,43.74
2022-08-23T19:19:22.918Z,43.95
2022-08-23T19:21:50.191Z,43.81
2022-08-23T19:24:17.035Z,44.13
2022-08-23T19:26:47.290Z,44.02
2022-08-23T19:29:14.761Z,44.13
2022-08-23T19:31:47.714Z,44.23
2022-08-23T19:34:16.655Z,44.59
2022-08-23T19:36:46.899Z,44.44
2022-08-23T19:39:16.319Z,44.69
2022-08-23T19:41:42.836Z,44.71
2022-08-23T19:44:09.954Z,44.47
2022-08-23T19:46:41.155Z,44.60
2022-08-23T19:49:10.461Z,44.68
2022-08-23T19:51:38.020Z,44.63
2022-08-23T19:54:10.983Z,44.38
2022-08-23T19:56:45.836Z,45.12
2022-08-23T19:59:16.156Z,45.25
2022-08-23T20:01:42.754Z,45.18
2022-08-23T20:04:09.244Z,45.49
2022-08-23T20:06:35.990Z,45.70
2022-08-23T20:09:02.558Z,45.71
2022-08-23T20:11:29.527Z,46.14
2022-08-23T20:13:56.560Z,45.93
2022-08-23T20:16:26.598Z,46.02
2022-08-23T20:18:54.235Z,46.05
2022-08-23T20:21:23.906Z,45.99
2022-08-23T20:24:01.447Z,46.13
2022-08-23T20:26:30.247Z,45.99
2022-08-23T20:28:59.753Z,46.12
2022-08-23T20:31:29.702Z,46.28
2022-08-23T20:33:56.771Z,46.42
2022-08-23T20:36:24.351Z,46.21
2022-08-23T20:38:50.841Z,46.79
2022-08-23T20:41:17.467Z,46.35
2022-08-23T20:43:47.622Z,46.41
2022-08-23T20:46:14.089Z,46.26
2022-08-23T20:48:40.488Z,46.60
2022-08-23T20:51:07.369Z,46.89
2022-08-23T20:53:34.986Z,46.86
2022-08-23T20:56:01.886Z,46.96
2022-08-23T20:58:28.487Z,47.15
2022-08-23T21:00:55.006Z,47.10
2022-08-23T21:03:21.646Z,47.24
2022-08-23T21:05:48.184Z,47.33
2022-08-23T21:08:16.136Z,47.72
2022-08-23T21:10:44.829Z,47.50
2022-08-23T21:13:11.459Z,47.24
2022-08-23T21:15:37.969Z,47.20
2022-08-23T21:18:04.810Z,47.01
2022-08-23T21:20:31.201Z,47.11
2022-08-23T21:22:57.649Z,47.13
2022-08-23T21:25:24.435Z,47.56
2022-08-23T21:27:50.930Z,47.46
2022-08-23T21:30:17.521Z,47.45
2022-08-23T21:32:43.958Z,47.81
2022-08-23T21:35:11.213Z,47.88
2022-08-23T21:37:38.090Z,47.74
2022-08-23T21:40:05.238Z,48.09
2022-08-23T21:42:31.738Z,48.22
2022-08-23T21:44:58.238Z,48.40
2022-08-23T21:47:24.668Z,48.60
2022-08-23T21:49:51.094Z,48.57
2022-08-23T21:52:17.494Z,48.97
2022-08-23T21:54:43.943Z,49.38
2022-08-23T21:57:10.911Z,49.27
2022-08-23T21:59:37.346Z,49.36
2022-08-23T22:02:04.133Z,49.52
2022-08-23T22:04:30.598Z,49.63
2022-08-23T22:06:57.235Z,50.16
2022-08-23T22:09:31.433Z,50.25
2022-08-23T22:11:58.934Z,49.72
2022-08-23T22:14:28.732Z,49.46
2022-08-23T22:16:58.878Z,49.58
2022-08-23T22:19:25.564Z,49.86
2022-08-23T22:21:53.023Z,49.79
2022-08-23T22:24:25.601Z,49.87
2022-08-23T22:26:54.507Z,50.01
2022-08-23T22:29:21.217Z,49.81
2022-08-23T22:31:48.212Z,50.15
2022-08-23T22:34:14.937Z,50.01
2022-08-23T22:36:41.927Z,50.46
2022-08-23T22:39:08.480Z,50.56
2022-08-23T22:41:35.150Z,51.27
2022-08-23T22:44:02.656Z,51.28
2022-08-23T22:46:31.568Z,51.03
2022-08-23T22:48:58.378Z,51.11
2022-08-23T22:51:31.216Z,51.14
2022-08-23T22:54:00.718Z,51.26
2022-08-23T22:56:33.348Z,51.07
2022-08-23T22:59:00.024Z,51.59
2022-08-23T23:01:32.906Z,51.10
2022-08-23T23:04:02.001Z,51.19
2022-08-23T23:06:29.044Z,51.56
2022-08-23T23:08:56.171Z,52.25
2022-08-23T23:11:24.321Z,52.46
2022-08-23T23:13:50.835Z,52.09
2022-08-23T23:16:22.281Z,52.13
2022-08-23T23:19:07.940Z,52.33
2022-08-23T23:21:43.976Z,51.81
2022-08-23T23:24:12.926Z,51.81
2022-08-23T23:26:39.418Z,52.16
2022-08-23T23:29:06.164Z,52.49
2022-08-23T23:31:32.563Z,52.80
2022-08-23T23:33:59.047Z,53.06
2022-08-23T23:36:25.766Z,53.07
2022-08-23T23:38:52.371Z,53.00
2022-08-23T23:41:20.379Z,53.32
2022-08-23T23:43:47.748Z,53.58
2022-08-23T23:46:16.606Z,53.18
2022-08-23T23:48:46.475Z,53.65
2022-08-23T23:51:19.708Z,53.70
2022-08-23T23:53:46.609Z,53.68
2022-08-23T23:56:15.557Z,54.03
2022-08-23T23:58:42.067Z,54.35
